sensor_id;sensor_type;location;lat;lon;timestamp;P1;durP1;ratioP1;P2;durP2;ratioP2
76548;SDS011;65391;52.068;4.542;2023-02-18T00:01:29;20.2;;;10.6;;
76548;SDS011;65391;52.068;4.542;2023-02-18T00:03:54;20.2;;;10.6;;
76548;SDS011;65391;52.068;4.542;2023-02-18T00:06:21;20.2;;;10.6;;
76548;SDS011;65391;52.068;4.542;2023-02-18T00:08:45;21.4;;;12.2;;
76548;SDS011;65391;52.068;4.542;2023-02-18T00:11:09;21.4;;;12.2;;
76548;SDS011;65391;52.068;4.542;2023-02-18T00:13:34;21.4;;;12.2;;
76548;SDS011;65391;52.068;4.542;2023-02-18T00:16:00;21.4;;;12.2;;
76548;SDS011;65391;52.068;4.542;2023-02-18T00:18:24;21.4;;;12.2;;
76548;SDS011;65391;52.068;4.542;2023-02-18T00:20:49;21.8;;;13.1;;
76548;SDS011;65391;52.068;4.542;2023-02-18T00:23:14;21.8;;;13.1;;
76548;SDS011;65391;52.068;4.542;2023-02-18T00:25:39;21.8;;;13.1;;
76548;SDS011;65391;52.068;4.542;2023-02-18T00:28:04;21.8;;;13.1;;
76548;SDS011;65391;52.068;4.542;2023-02-18T00:30:29;22.9;;;14.1;;
76548;SDS011;65391;52.068;4.542;2023-02-18T00:32:54;22.9;;;14.1;;
76548;SDS011;65391;52.068;4.542;2023-02-18T00:35:19;22.9;;;14.1;;
76548;SDS011;65391;52.068;4.542;2023-02-18T00:37:44;22.9;;;14.1;;
76548;SDS011;65391;52.068;4.542;2023-02-18T00:40:10;20;;;10.8;;
76548;SDS011;65391;52.068;4.542;2023-02-18T00:42:34;20;;;10.8;;
76548;SDS011;65391;52.068;4.542;2023-02-18T00:44:59;20;;;10.8;;
76548;SDS011;65391;52.068;4.542;2023-02-18T00:47:24;20;;;10.8;;
76548;SDS011;65391;52.068;4.542;2023-02-18T00:49:49;20.5;;;11.4;;
76548;SDS011;65391;52.068;4.542;2023-02-18T00:52:14;20.5;;;11.4;;
76548;SDS011;65391;52.068;4.542;2023-02-18T00:54:40;20.5;;;11.4;;
76548;SDS011;65391;52.068;4.542;2023-02-18T00:57:05;20.5;;;11.4;;
76548;SDS011;65391;52.068;4.542;2023-02-18T00:59:29;20.2;;;11.2;;
76548;SDS011;65391;52.068;4.542;2023-02-18T01:01:54;20.2;;;11.2;;
76548;SDS011;65391;52.068;4.542;2023-02-18T01:04:19;20.2;;;11.2;;
76548;SDS011;65391;52.068;4.542;2023-02-18T01:06:44;20.2;;;11.2;;
76548;SDS011;65391;52.068;4.542;2023-02-18T01:09:09;21.3;;;12.3;;
76548;SDS011;65391;52.068;4.542;2023-02-18T01:11:34;21.3;;;12.3;;
76548;SDS011;65391;52.068;4.542;2023-02-18T01:13:59;21.3;;;12.3;;
76548;SDS011;65391;52.068;4.542;2023-02-18T01:16:24;21.3;;;12.3;;
76548;SDS011;65391;52.068;4.542;2023-02-18T01:18:49;21.9;;;13.3;;
76548;SDS011;65391;52.068;4.542;2023-02-18T01:21:14;21.9;;;13.3;;
76548;SDS011;65391;52.068;4.542;2023-02-18T01:23:40;21.9;;;13.3;;
76548;SDS011;65391;52.068;4.542;2023-02-18T01:26:04;21.9;;;13.3;;
76548;SDS011;65391;52.068;4.542;2023-02-18T01:28:30;21.9;;;13.3;;
76548;SDS011;65391;52.068;4.542;2023-02-18T01:30:54;20.9;;;12;;
76548;SDS011;65391;52.068;4.542;2023-02-18T01:33:20;20.9;;;12;;
76548;SDS011;65391;52.068;4.542;2023-02-18T01:35:44;20.9;;;12;;
76548;SDS011;65391;52.068;4.542;2023-02-18T01:38:09;20.9;;;12;;
76548;SDS011;65391;52.068;4.542;2023-02-18T01:40:35;19.8;;;11;;
76548;SDS011;65391;52.068;4.542;2023-02-18T01:42:59;19.8;;;11;;
76548;SDS011;65391;52.068;4.542;2023-02-18T01:45:59;19.8;;;11;;
76548;SDS011;65391;52.068;4.542;2023-02-18T01:47:49;19.8;;;11;;
76548;SDS011;65391;52.068;4.542;2023-02-18T01:50:15;20.2;;;11.4;;
76548;SDS011;65391;52.068;4.542;2023-02-18T01:52:39;20.2;;;11.4;;
76548;SDS011;65391;52.068;4.542;2023-02-18T01:55:05;20.2;;;11.4;;
76548;SDS011;65391;52.068;4.542;2023-02-18T01:57:31;20.2;;;11.4;;
76548;SDS011;65391;52.068;4.542;2023-02-18T01:59:56;19.8;;;11.1;;
76548;SDS011;65391;52.068;4.542;2023-02-18T02:02:20;19.8;;;11.1;;
76548;SDS011;65391;52.068;4.542;2023-02-18T02:04:45;19.8;;;11.1;;
76548;SDS011;65391;52.068;4.542;2023-02-18T02:07:10;19.8;;;11.1;;
76548;SDS011;65391;52.068;4.542;2023-02-18T02:09:34;17.6;;;8.5;;
76548;SDS011;65391;52.068;4.542;2023-02-18T02:12:24;17.6;;;8.5;;
76548;SDS011;65391;52.068;4.542;2023-02-18T02:14:34;17.6;;;8.5;;
76548;SDS011;65391;52.068;4.542;2023-02-18T02:16:54;17.6;;;8.5;;
76548;SDS011;65391;52.068;4.542;2023-02-18T02:19:28;20.4;;;11.8;;
76548;SDS011;65391;52.068;4.542;2023-02-18T02:21:52;20.4;;;11.8;;
76548;SDS011;65391;52.068;4.542;2023-02-18T02:24:18;20.4;;;11.8;;
76548;SDS011;65391;52.068;4.542;2023-02-18T02:26:44;20.4;;;11.8;;
76548;SDS011;65391;52.068;4.542;2023-02-18T02:29:02;19.6;;;11;;
76548;SDS011;65391;52.068;4.542;2023-02-18T02:31:32;19.6;;;11;;
76548;SDS011;65391;52.068;4.542;2023-02-18T02:33:58;19.6;;;11;;
76548;SDS011;65391;52.068;4.542;2023-02-18T02:36:11;19.6;;;11;;
76548;SDS011;65391;52.068;4.542;2023-02-18T02:38:36;19.6;;;11;;
76548;SDS011;65391;52.068;4.542;2023-02-18T02:41:06;18.4;;;10;;
76548;SDS011;65391;52.068;4.542;2023-02-18T02:43:28;18.4;;;10;;
76548;SDS011;65391;52.068;4.542;2023-02-18T02:45:51;18.4;;;10;;
76548;SDS011;65391;52.068;4.542;2023-02-18T02:48:18;18.4;;;10;;
76548;SDS011;65391;52.068;4.542;2023-02-18T02:50:43;15.9;;;8.2;;
76548;SDS011;65391;52.068;4.542;2023-02-18T02:53:07;15.9;;;8.2;;
76548;SDS011;65391;52.068;4.542;2023-02-18T02:55:30;15.9;;;8.2;;
76548;SDS011;65391;52.068;4.542;2023-02-18T02:57:55;15.9;;;8.2;;
76548;SDS011;65391;52.068;4.542;2023-02-18T03:00:21;15.1;;;7.1;;
76548;SDS011;65391;52.068;4.542;2023-02-18T03:02:58;15.1;;;7.1;;
76548;SDS011;65391;52.068;4.542;2023-02-18T03:05:15;15.1;;;7.1;;
76548;SDS011;65391;52.068;4.542;2023-02-18T03:07:45;15.1;;;7.1;;
76548;SDS011;65391;52.068;4.542;2023-02-18T03:10:10;11.1;;;4.9;;
76548;SDS011;65391;52.068;4.542;2023-02-18T03:12:28;11.1;;;4.9;;
76548;SDS011;65391;52.068;4.542;2023-02-18T03:14:55;11.1;;;4.9;;
76548;SDS011;65391;52.068;4.542;2023-02-18T03:17:18;11.1;;;4.9;;
76548;SDS011;65391;52.068;4.542;2023-02-18T03:19:42;6.2;;;3.4;;
76548;SDS011;65391;52.068;4.542;2023-02-18T03:22:06;6.2;;;3.4;;
76548;SDS011;65391;52.068;4.542;2023-02-18T03:24:31;6.2;;;3.4;;
76548;SDS011;65391;52.068;4.542;2023-02-18T03:26:58;6.2;;;3.4;;
76548;SDS011;65391;52.068;4.542;2023-02-18T03:29:20;6.5;;;2.9;;
76548;SDS011;65391;52.068;4.542;2023-02-18T03:31:46;6.5;;;2.9;;
76548;SDS011;65391;52.068;4.542;2023-02-18T03:34:11;6.5;;;2.9;;
76548;SDS011;65391;52.068;4.542;2023-02-18T03:36:35;6.5;;;2.9;;
76548;SDS011;65391;52.068;4.542;2023-02-18T03:39:02;6;;;2.9;;
76548;SDS011;65391;52.068;4.542;2023-02-18T03:41:25;6;;;2.9;;
76548;SDS011;65391;52.068;4.542;2023-02-18T03:43:50;6;;;2.9;;
76548;SDS011;65391;52.068;4.542;2023-02-18T03:46:15;6;;;2.9;;
76548;SDS011;65391;52.068;4.542;2023-02-18T03:48:40;6;;;2.9;;
76548;SDS011;65391;52.068;4.542;2023-02-18T03:51:05;7.2;;;3;;
76548;SDS011;65391;52.068;4.542;2023-02-18T03:53:30;7.2;;;3;;
76548;SDS011;65391;52.068;4.542;2023-02-18T03:55:55;7.2;;;3;;
76548;SDS011;65391;52.068;4.542;2023-02-18T03:58:20;7.2;;;3;;
76548;SDS011;65391;52.068;4.542;2023-02-18T04:00:45;7.2;;;3.8;;
76548;SDS011;65391;52.068;4.542;2023-02-18T04:03:10;7.2;;;3.8;;
76548;SDS011;65391;52.068;4.542;2023-02-18T04:05:35;7.2;;;3.8;;
76548;SDS011;65391;52.068;4.542;2023-02-18T04:08:00;7.2;;;3.8;;
76548;SDS011;65391;52.068;4.542;2023-02-18T04:10:25;10.3;;;4.7;;
76548;SDS011;65391;52.068;4.542;2023-02-18T04:12:50;10.3;;;4.7;;
76548;SDS011;65391;52.068;4.542;2023-02-18T04:15:15;10.3;;;4.7;;
76548;SDS011;65391;52.068;4.542;2023-02-18T04:17:40;10.3;;;4.7;;
76548;SDS011;65391;52.068;4.542;2023-02-18T04:20:06;11.9;;;6.1;;
76548;SDS011;65391;52.068;4.542;2023-02-18T04:22:30;11.9;;;6.1;;
76548;SDS011;65391;52.068;4.542;2023-02-18T04:24:55;11.9;;;6.1;;
76548;SDS011;65391;52.068;4.542;2023-02-18T04:27:20;11.9;;;6.1;;
76548;SDS011;65391;52.068;4.542;2023-02-18T04:29:45;11.9;;;6.1;;
76548;SDS011;65391;52.068;4.542;2023-02-18T04:32:10;11.9;;;6.1;;
76548;SDS011;65391;52.068;4.542;2023-02-18T04:34:35;11.9;;;6.1;;
76548;SDS011;65391;52.068;4.542;2023-02-18T04:37:00;11.9;;;6.1;;
76548;SDS011;65391;52.068;4.542;2023-02-18T04:39:25;12.3;;;5.4;;
76548;SDS011;65391;52.068;4.542;2023-02-18T04:41:50;12.3;;;5.4;;
76548;SDS011;65391;52.068;4.542;2023-02-18T04:44:15;12.3;;;5.4;;
76548;SDS011;65391;52.068;4.542;2023-02-18T04:46:40;12.3;;;5.4;;
76548;SDS011;65391;52.068;4.542;2023-02-18T04:49:05;14.1;;;6.6;;
76548;SDS011;65391;52.068;4.542;2023-02-18T04:51:30;14.1;;;6.6;;
76548;SDS011;65391;52.068;4.542;2023-02-18T04:53:55;14.1;;;6.6;;
76548;SDS011;65391;52.068;4.542;2023-02-18T04:56:20;14.1;;;6.6;;
76548;SDS011;65391;52.068;4.542;2023-02-18T04:58:45;14.1;;;6.6;;
76548;SDS011;65391;52.068;4.542;2023-02-18T05:01:10;13.8;;;5.9;;
76548;SDS011;65391;52.068;4.542;2023-02-18T05:03:35;13.8;;;5.9;;
76548;SDS011;65391;52.068;4.542;2023-02-18T05:06:00;13.8;;;5.9;;
76548;SDS011;65391;52.068;4.542;2023-02-18T05:08:25;13.8;;;5.9;;
76548;SDS011;65391;52.068;4.542;2023-02-18T05:10:50;11.1;;;6.1;;
76548;SDS011;65391;52.068;4.542;2023-02-18T05:13:15;11.1;;;6.1;;
76548;SDS011;65391;52.068;4.542;2023-02-18T05:15:40;11.1;;;6.1;;
76548;SDS011;65391;52.068;4.542;2023-02-18T05:18:05;11.1;;;6.1;;
76548;SDS011;65391;52.068;4.542;2023-02-18T05:20:30;13.6;;;6;;
76548;SDS011;65391;52.068;4.542;2023-02-18T05:22:55;13.6;;;6;;
76548;SDS011;65391;52.068;4.542;2023-02-18T05:25:20;13.6;;;6;;
76548;SDS011;65391;52.068;4.542;2023-02-18T05:27:45;13.6;;;6;;
76548;SDS011;65391;52.068;4.542;2023-02-18T05:30:10;13.1;;;5.5;;
76548;SDS011;65391;52.068;4.542;2023-02-18T05:32:35;13.1;;;5.5;;
76548;SDS011;65391;52.068;4.542;2023-02-18T05:35:00;13.1;;;5.5;;
76548;SDS011;65391;52.068;4.542;2023-02-18T05:37:25;13.1;;;5.5;;
76548;SDS011;65391;52.068;4.542;2023-02-18T05:39:50;12.1;;;5.5;;
76548;SDS011;65391;52.068;4.542;2023-02-18T05:42:15;12.1;;;5.5;;
76548;SDS011;65391;52.068;4.542;2023-02-18T05:44:40;12.1;;;5.5;;
76548;SDS011;65391;52.068;4.542;2023-02-18T05:47:06;12.1;;;5.5;;
76548;SDS011;65391;52.068;4.542;2023-02-18T05:49:30;12.8;;;5.8;;
76548;SDS011;65391;52.068;4.542;2023-02-18T05:51:55;12.8;;;5.8;;
76548;SDS011;65391;52.068;4.542;2023-02-18T05:54:20;12.8;;;5.8;;
76548;SDS011;65391;52.068;4.542;2023-02-18T05:56:45;12.8;;;5.8;;
76548;SDS011;65391;52.068;4.542;2023-02-18T05:59:10;11.6;;;5.3;;
76548;SDS011;65391;52.068;4.542;2023-02-18T06:01:35;11.6;;;5.3;;
76548;SDS011;65391;52.068;4.542;2023-02-18T06:04:00;11.6;;;5.3;;
76548;SDS011;65391;52.068;4.542;2023-02-18T06:06:25;11.6;;;5.3;;
76548;SDS011;65391;52.068;4.542;2023-02-18T06:08:50;11.6;;;5.3;;
76548;SDS011;65391;52.068;4.542;2023-02-18T06:11:15;11.7;;;5;;
76548;SDS011;65391;52.068;4.542;2023-02-18T06:13:40;11.7;;;5;;
76548;SDS011;65391;52.068;4.542;2023-02-18T06:16:05;11.7;;;5;;
76548;SDS011;65391;52.068;4.542;2023-02-18T06:18:30;11.7;;;5;;
76548;SDS011;65391;52.068;4.542;2023-02-18T06:20:55;11.8;;;5;;
76548;SDS011;65391;52.068;4.542;2023-02-18T06:23:20;11.8;;;5;;
76548;SDS011;65391;52.068;4.542;2023-02-18T06:25:47;11.8;;;5;;
76548;SDS011;65391;52.068;4.542;2023-02-18T06:28:10;11.8;;;5;;
76548;SDS011;65391;52.068;4.542;2023-02-18T06:30:35;15.6;;;6.3;;
76548;SDS011;65391;52.068;4.542;2023-02-18T06:33:00;15.6;;;6.3;;
76548;SDS011;65391;52.068;4.542;2023-02-18T06:35:25;15.6;;;6.3;;
76548;SDS011;65391;52.068;4.542;2023-02-18T06:37:50;15.6;;;6.3;;
76548;SDS011;65391;52.068;4.542;2023-02-18T06:40:15;15.9;;;6;;
76548;SDS011;65391;52.068;4.542;2023-02-18T06:42:40;15.9;;;6;;
76548;SDS011;65391;52.068;4.542;2023-02-18T06:45:05;15.9;;;6;;
76548;SDS011;65391;52.068;4.542;2023-02-18T06:47:30;15.9;;;6;;
76548;SDS011;65391;52.068;4.542;2023-02-18T06:49:55;15.9;;;5.9;;
76548;SDS011;65391;52.068;4.542;2023-02-18T06:52:20;15.9;;;5.9;;
76548;SDS011;65391;52.068;4.542;2023-02-18T06:54:45;15.9;;;5.9;;
76548;SDS011;65391;52.068;4.542;2023-02-18T06:57:10;15.9;;;5.9;;
76548;SDS011;65391;52.068;4.542;2023-02-18T06:59:35;14.8;;;5.1;;
76548;SDS011;65391;52.068;4.542;2023-02-18T07:02:00;14.8;;;5.1;;
76548;SDS011;65391;52.068;4.542;2023-02-18T07:04:25;14.8;;;5.1;;
76548;SDS011;65391;52.068;4.542;2023-02-18T07:06:50;14.8;;;5.1;;
76548;SDS011;65391;52.068;4.542;2023-02-18T07:09:15;13.9;;;3.6;;
76548;SDS011;65391;52.068;4.542;2023-02-18T07:11:40;13.9;;;3.6;;
76548;SDS011;65391;52.068;4.542;2023-02-18T07:14:05;13.9;;;3.6;;
76548;SDS011;65391;52.068;4.542;2023-02-18T07:16:30;13.9;;;3.6;;
76548;SDS011;65391;52.068;4.542;2023-02-18T07:18:55;13.9;;;3.6;;
76548;SDS011;65391;52.068;4.542;2023-02-18T07:21:20;14;;;3.2;;
76548;SDS011;65391;52.068;4.542;2023-02-18T07:23:45;14;;;3.2;;
76548;SDS011;65391;52.068;4.542;2023-02-18T07:26:11;14;;;3.2;;
76548;SDS011;65391;52.068;4.542;2023-02-18T07:28:35;14;;;3.2;;
76548;SDS011;65391;52.068;4.542;2023-02-18T07:31:00;14;;;3.3;;
76548;SDS011;65391;52.068;4.542;2023-02-18T07:33:25;14;;;3.3;;
76548;SDS011;65391;52.068;4.542;2023-02-18T07:35:52;14;;;3.3;;
76548;SDS011;65391;52.068;4.542;2023-02-18T07:38:15;14;;;3.3;;
76548;SDS011;65391;52.068;4.542;2023-02-18T07:40:40;13.9;;;2.7;;
76548;SDS011;65391;52.068;4.542;2023-02-18T07:43:05;13.9;;;2.7;;
76548;SDS011;65391;52.068;4.542;2023-02-18T07:45:30;13.9;;;2.7;;
76548;SDS011;65391;52.068;4.542;2023-02-18T07:47:55;13.9;;;2.7;;
76548;SDS011;65391;52.068;4.542;2023-02-18T07:50:20;14.9;;;2.8;;
76548;SDS011;65391;52.068;4.542;2023-02-18T07:52:45;14.9;;;2.8;;
76548;SDS011;65391;52.068;4.542;2023-02-18T07:55:10;14.9;;;2.8;;
76548;SDS011;65391;52.068;4.542;2023-02-18T07:57:35;14.9;;;2.8;;
76548;SDS011;65391;52.068;4.542;2023-02-18T08:00:00;12.3;;;2.7;;
76548;SDS011;65391;52.068;4.542;2023-02-18T08:02:25;12.3;;;2.7;;
76548;SDS011;65391;52.068;4.542;2023-02-18T08:04:50;12.3;;;2.7;;
76548;SDS011;65391;52.068;4.542;2023-02-18T08:07:16;12.3;;;2.7;;
76548;SDS011;65391;52.068;4.542;2023-02-18T08:09:40;14.6;;;3.4;;
76548;SDS011;65391;52.068;4.542;2023-02-18T08:12:05;14.6;;;3.4;;
76548;SDS011;65391;52.068;4.542;2023-02-18T08:14:30;14.6;;;3.4;;
76548;SDS011;65391;52.068;4.542;2023-02-18T08:16:55;14.6;;;3.4;;
76548;SDS011;65391;52.068;4.542;2023-02-18T08:19:20;12.6;;;2.8;;
76548;SDS011;65391;52.068;4.542;2023-02-18T08:21:45;12.6;;;2.8;;
76548;SDS011;65391;52.068;4.542;2023-02-18T08:24:10;12.6;;;2.8;;
76548;SDS011;65391;52.068;4.542;2023-02-18T08:26:35;12.6;;;2.8;;
76548;SDS011;65391;52.068;4.542;2023-02-18T08:29:00;12.6;;;2.8;;
76548;SDS011;65391;52.068;4.542;2023-02-18T08:31:26;13.8;;;2.7;;
76548;SDS011;65391;52.068;4.542;2023-02-18T08:33:50;13.8;;;2.7;;
76548;SDS011;65391;52.068;4.542;2023-02-18T08:36:15;13.8;;;2.7;;
76548;SDS011;65391;52.068;4.542;2023-02-18T08:38:40;13.8;;;2.7;;
76548;SDS011;65391;52.068;4.542;2023-02-18T08:41:06;10.8;;;2.4;;
76548;SDS011;65391;52.068;4.542;2023-02-18T08:43:30;10.8;;;2.4;;
76548;SDS011;65391;52.068;4.542;2023-02-18T08:45:56;10.8;;;2.4;;
76548;SDS011;65391;52.068;4.542;2023-02-18T08:48:20;10.8;;;2.4;;
76548;SDS011;65391;52.068;4.542;2023-02-18T08:50:45;12.9;;;2.6;;
76548;SDS011;65391;52.068;4.542;2023-02-18T08:53:10;12.9;;;2.6;;
76548;SDS011;65391;52.068;4.542;2023-02-18T08:55:35;12.9;;;2.6;;
76548;SDS011;65391;52.068;4.542;2023-02-18T08:58:00;12.9;;;2.6;;
76548;SDS011;65391;52.068;4.542;2023-02-18T09:00:25;13.9;;;2.5;;
76548;SDS011;65391;52.068;4.542;2023-02-18T09:02:50;13.9;;;2.5;;
76548;SDS011;65391;52.068;4.542;2023-02-18T09:05:15;13.9;;;2.5;;
76548;SDS011;65391;52.068;4.542;2023-02-18T09:07:40;13.9;;;2.5;;
76548;SDS011;65391;52.068;4.542;2023-02-18T09:10:05;14.9;;;3.6;;
76548;SDS011;65391;52.068;4.542;2023-02-18T09:12:30;14.9;;;3.6;;
76548;SDS011;65391;52.068;4.542;2023-02-18T09:14:55;14.9;;;3.6;;
76548;SDS011;65391;52.068;4.542;2023-02-18T09:17:20;14.9;;;3.6;;
76548;SDS011;65391;52.068;4.542;2023-02-18T09:19:45;15.5;;;3.1;;
76548;SDS011;65391;52.068;4.542;2023-02-18T09:22:10;15.5;;;3.1;;
76548;SDS011;65391;52.068;4.542;2023-02-18T09:24:36;15.5;;;3.1;;
76548;SDS011;65391;52.068;4.542;2023-02-18T09:27:00;15.5;;;3.1;;
76548;SDS011;65391;52.068;4.542;2023-02-18T09:29:25;15.3;;;3;;
76548;SDS011;65391;52.068;4.542;2023-02-18T09:31:50;15.3;;;3;;
76548;SDS011;65391;52.068;4.542;2023-02-18T09:34:15;15.3;;;3;;
76548;SDS011;65391;52.068;4.542;2023-02-18T09:36:40;15.3;;;3;;
76548;SDS011;65391;52.068;4.542;2023-02-18T09:39:05;15.3;;;3;;
76548;SDS011;65391;52.068;4.542;2023-02-18T09:41:33;14.3;;;2.3;;
76548;SDS011;65391;52.068;4.542;2023-02-18T09:43:56;14.3;;;2.3;;
76548;SDS011;65391;52.068;4.542;2023-02-18T09:46:21;14.3;;;2.3;;
76548;SDS011;65391;52.068;4.542;2023-02-18T09:48:45;14.3;;;2.3;;
76548;SDS011;65391;52.068;4.542;2023-02-18T09:51:10;13.4;;;2.9;;
76548;SDS011;65391;52.068;4.542;2023-02-18T09:53:35;13.4;;;2.9;;
76548;SDS011;65391;52.068;4.542;2023-02-18T09:56:00;13.4;;;2.9;;
76548;SDS011;65391;52.068;4.542;2023-02-18T09:58:26;13.4;;;2.9;;
76548;SDS011;65391;52.068;4.542;2023-02-18T10:00:52;16.3;;;3.9;;
76548;SDS011;65391;52.068;4.542;2023-02-18T10:03:16;16.3;;;3.9;;
76548;SDS011;65391;52.068;4.542;2023-02-18T10:05:42;16.3;;;3.9;;
76548;SDS011;65391;52.068;4.542;2023-02-18T10:08:06;16.3;;;3.9;;
76548;SDS011;65391;52.068;4.542;2023-02-18T10:10:35;13.6;;;3.3;;
76548;SDS011;65391;52.068;4.542;2023-02-18T10:12:55;13.6;;;3.3;;
76548;SDS011;65391;52.068;4.542;2023-02-18T10:15:22;13.6;;;3.3;;
76548;SDS011;65391;52.068;4.542;2023-02-18T10:17:45;13.6;;;3.3;;
76548;SDS011;65391;52.068;4.542;2023-02-18T10:20:10;15.2;;;3.6;;
76548;SDS011;65391;52.068;4.542;2023-02-18T10:22:35;15.2;;;3.6;;
76548;SDS011;65391;52.068;4.542;2023-02-18T10:25:01;15.2;;;3.6;;
76548;SDS011;65391;52.068;4.542;2023-02-18T10:27:26;15.2;;;3.6;;
76548;SDS011;65391;52.068;4.542;2023-02-18T10:29:50;14.9;;;2.8;;
76548;SDS011;65391;52.068;4.542;2023-02-18T10:32:16;14.9;;;2.8;;
76548;SDS011;65391;52.068;4.542;2023-02-18T10:34:41;14.9;;;2.8;;
76548;SDS011;65391;52.068;4.542;2023-02-18T10:37:07;14.9;;;2.8;;
76548;SDS011;65391;52.068;4.542;2023-02-18T10:39:36;11.1;;;1.7;;
76548;SDS011;65391;52.068;4.542;2023-02-18T10:41:58;11.1;;;1.7;;
76548;SDS011;65391;52.068;4.542;2023-02-18T10:44:25;11.1;;;1.7;;
76548;SDS011;65391;52.068;4.542;2023-02-18T10:46:49;11.1;;;1.7;;
76548;SDS011;65391;52.068;4.542;2023-02-18T10:49:23;11.1;;;1.7;;
76548;SDS011;65391;52.068;4.542;2023-02-18T10:51:36;12.6;;;2.1;;
76548;SDS011;65391;52.068;4.542;2023-02-18T10:54:00;12.6;;;2.1;;
76548;SDS011;65391;52.068;4.542;2023-02-18T10:56:32;12.6;;;2.1;;
76548;SDS011;65391;52.068;4.542;2023-02-18T10:58:50;12.6;;;2.1;;
76548;SDS011;65391;52.068;4.542;2023-02-18T11:01:16;7.6;;;1.5;;
76548;SDS011;65391;52.068;4.542;2023-02-18T11:03:41;7.6;;;1.5;;
76548;SDS011;65391;52.068;4.542;2023-02-18T11:06:05;7.6;;;1.5;;
76548;SDS011;65391;52.068;4.542;2023-02-18T11:08:36;7.6;;;1.5;;
76548;SDS011;65391;52.068;4.542;2023-02-18T11:10:55;12.1;;;2.6;;
76548;SDS011;65391;52.068;4.542;2023-02-18T11:13:24;12.1;;;2.6;;
76548;SDS011;65391;52.068;4.542;2023-02-18T11:15:54;12.1;;;2.6;;
76548;SDS011;65391;52.068;4.542;2023-02-18T11:18:12;12.1;;;2.6;;
76548;SDS011;65391;52.068;4.542;2023-02-18T11:20:35;10.6;;;2.8;;
76548;SDS011;65391;52.068;4.542;2023-02-18T11:23:15;10.6;;;2.8;;
76548;SDS011;65391;52.068;4.542;2023-02-18T11:25:26;10.6;;;2.8;;
76548;SDS011;65391;52.068;4.542;2023-02-18T11:27:51;10.6;;;2.8;;
76548;SDS011;65391;52.068;4.542;2023-02-18T11:30:17;9.5;;;1.8;;
76548;SDS011;65391;52.068;4.542;2023-02-18T11:32:40;9.5;;;1.8;;
76548;SDS011;65391;52.068;4.542;2023-02-18T11:35:05;9.5;;;1.8;;
76548;SDS011;65391;52.068;4.542;2023-02-18T11:37:31;9.5;;;1.8;;
76548;SDS011;65391;52.068;4.542;2023-02-18T11:39:55;13.2;;;2.5;;
76548;SDS011;65391;52.068;4.542;2023-02-18T11:42:21;13.2;;;2.5;;
76548;SDS011;65391;52.068;4.542;2023-02-18T11:44:48;13.2;;;2.5;;
76548;SDS011;65391;52.068;4.542;2023-02-18T11:47:19;13.2;;;2.5;;
76548;SDS011;65391;52.068;4.542;2023-02-18T11:49:35;9.8;;;1.5;;
76548;SDS011;65391;52.068;4.542;2023-02-18T11:52:03;9.8;;;1.5;;
76548;SDS011;65391;52.068;4.542;2023-02-18T11:54:26;9.8;;;1.5;;
76548;SDS011;65391;52.068;4.542;2023-02-18T11:56:54;9.8;;;1.5;;
76548;SDS011;65391;52.068;4.542;2023-02-18T11:59:15;9.8;;;1.5;;
76548;SDS011;65391;52.068;4.542;2023-02-18T12:01:42;12.8;;;2.8;;
76548;SDS011;65391;52.068;4.542;2023-02-18T12:04:09;12.8;;;2.8;;
76548;SDS011;65391;52.068;4.542;2023-02-18T12:06:31;12.8;;;2.8;;
76548;SDS011;65391;52.068;4.542;2023-02-18T12:08:56;12.8;;;2.8;;
76548;SDS011;65391;52.068;4.542;2023-02-18T12:11:23;12.4;;;2.1;;
76548;SDS011;65391;52.068;4.542;2023-02-18T12:13:49;12.4;;;2.1;;
76548;SDS011;65391;52.068;4.542;2023-02-18T12:16:14;12.4;;;2.1;;
76548;SDS011;65391;52.068;4.542;2023-02-18T12:18:48;12.4;;;2.1;;
76548;SDS011;65391;52.068;4.542;2023-02-18T12:21:06;14.7;;;2.4;;
76548;SDS011;65391;52.068;4.542;2023-02-18T12:23:27;14.7;;;2.4;;
76548;SDS011;65391;52.068;4.542;2023-02-18T12:25:54;14.7;;;2.4;;
76548;SDS011;65391;52.068;4.542;2023-02-18T12:28:23;14.7;;;2.4;;
76548;SDS011;65391;52.068;4.542;2023-02-18T12:30:52;5.3;;;1.3;;
76548;SDS011;65391;52.068;4.542;2023-02-18T12:33:07;5.3;;;1.3;;
76548;SDS011;65391;52.068;4.542;2023-02-18T12:35:36;5.3;;;1.3;;
76548;SDS011;65391;52.068;4.542;2023-02-18T12:38:02;5.3;;;1.3;;
76548;SDS011;65391;52.068;4.542;2023-02-18T12:40:32;5.8;;;1.6;;
76548;SDS011;65391;52.068;4.542;2023-02-18T12:42:51;5.8;;;1.6;;
76548;SDS011;65391;52.068;4.542;2023-02-18T12:45:25;5.8;;;1.6;;
76548;SDS011;65391;52.068;4.542;2023-02-18T12:47:43;5.8;;;1.6;;
76548;SDS011;65391;52.068;4.542;2023-02-18T12:50:08;13.4;;;2.3;;
76548;SDS011;65391;52.068;4.542;2023-02-18T12:52:30;13.4;;;2.3;;
76548;SDS011;65391;52.068;4.542;2023-02-18T12:54:58;13.4;;;2.3;;
76548;SDS011;65391;52.068;4.542;2023-02-18T12:57:21;13.4;;;2.3;;
76548;SDS011;65391;52.068;4.542;2023-02-18T13:00:06;7.3;;;1;;
76548;SDS011;65391;52.068;4.542;2023-02-18T13:02:09;7.3;;;1;;
76548;SDS011;65391;52.068;4.542;2023-02-18T13:04:36;7.3;;;1;;
76548;SDS011;65391;52.068;4.542;2023-02-18T13:09:25;7.3;;;1;;
76548;SDS011;65391;52.068;4.542;2023-02-18T13:11:46;9.1;;;1.8;;
76548;SDS011;65391;52.068;4.542;2023-02-18T13:14:12;9.1;;;1.8;;
76548;SDS011;65391;52.068;4.542;2023-02-18T13:16:35;9.1;;;1.8;;
76548;SDS011;65391;52.068;4.542;2023-02-18T13:19:02;9.1;;;1.8;;
76548;SDS011;65391;52.068;4.542;2023-02-18T13:21:25;9.8;;;2.1;;
76548;SDS011;65391;52.068;4.542;2023-02-18T13:23:51;9.8;;;2.1;;
76548;SDS011;65391;52.068;4.542;2023-02-18T13:26:15;9.8;;;2.1;;
76548;SDS011;65391;52.068;4.542;2023-02-18T13:28:42;9.8;;;2.1;;
76548;SDS011;65391;52.068;4.542;2023-02-18T13:31:14;4.7;;;1.3;;
76548;SDS011;65391;52.068;4.542;2023-02-18T13:33:34;4.7;;;1.3;;
76548;SDS011;65391;52.068;4.542;2023-02-18T13:35:57;4.7;;;1.3;;
76548;SDS011;65391;52.068;4.542;2023-02-18T13:38:30;4.7;;;1.3;;
76548;SDS011;65391;52.068;4.542;2023-02-18T13:40:45;3.5;;;1;;
76548;SDS011;65391;52.068;4.542;2023-02-18T13:43:19;3.5;;;1;;
76548;SDS011;65391;52.068;4.542;2023-02-18T13:45:35;3.5;;;1;;
76548;SDS011;65391;52.068;4.542;2023-02-18T13:48:00;3.5;;;1;;
76548;SDS011;65391;52.068;4.542;2023-02-18T13:50:28;6.4;;;1.9;;
76548;SDS011;65391;52.068;4.542;2023-02-18T13:52:51;6.4;;;1.9;;
76548;SDS011;65391;52.068;4.542;2023-02-18T13:55:17;6.4;;;1.9;;
76548;SDS011;65391;52.068;4.542;2023-02-18T13:57:40;6.4;;;1.9;;
76548;SDS011;65391;52.068;4.542;2023-02-18T14:00:06;5;;;1.4;;
76548;SDS011;65391;52.068;4.542;2023-02-18T14:02:32;5;;;1.4;;
76548;SDS011;65391;52.068;4.542;2023-02-18T14:04:55;5;;;1.4;;
76548;SDS011;65391;52.068;4.542;2023-02-18T14:07:36;5;;;1.4;;
76548;SDS011;65391;52.068;4.542;2023-02-18T14:09:45;10.1;;;1.2;;
76548;SDS011;65391;52.068;4.542;2023-02-18T14:12:35;10.1;;;1.2;;
76548;SDS011;65391;52.068;4.542;2023-02-18T14:14:37;10.1;;;1.2;;
76548;SDS011;65391;52.068;4.542;2023-02-18T14:17:34;10.1;;;1.2;;
76548;SDS011;65391;52.068;4.542;2023-02-18T14:19:27;10.1;;;1.2;;
76548;SDS011;65391;52.068;4.542;2023-02-18T14:21:50;4.6;;;1;;
76548;SDS011;65391;52.068;4.542;2023-02-18T14:24:15;4.6;;;1;;
76548;SDS011;65391;52.068;4.542;2023-02-18T14:26:44;4.6;;;1;;
76548;SDS011;65391;52.068;4.542;2023-02-18T14:29:09;4.6;;;1;;
76548;SDS011;65391;52.068;4.542;2023-02-18T14:31:51;11.2;;;1.6;;
76548;SDS011;65391;52.068;4.542;2023-02-18T14:35:17;11.2;;;1.6;;
76548;SDS011;65391;52.068;4.542;2023-02-18T14:36:24;11.2;;;1.6;;
76548;SDS011;65391;52.068;4.542;2023-02-18T14:38:47;11.2;;;1.6;;
76548;SDS011;65391;52.068;4.542;2023-02-18T14:41:17;6.9;;;1.7;;
76548;SDS011;65391;52.068;4.542;2023-02-18T14:43:43;6.9;;;1.7;;
76548;SDS011;65391;52.068;4.542;2023-02-18T14:46:07;6.9;;;1.7;;
76548;SDS011;65391;52.068;4.542;2023-02-18T14:48:37;6.9;;;1.7;;
76548;SDS011;65391;52.068;4.542;2023-02-18T14:50:50;8;;;1.6;;
76548;SDS011;65391;52.068;4.542;2023-02-18T14:53:17;8;;;1.6;;
76548;SDS011;65391;52.068;4.542;2023-02-18T14:55:43;8;;;1.6;;